Time;durP1;ratioP1;P1;durP2;ratioP2;P2;SDS_P1;SDS_P2;PMS_P1;PMS_P2;Temp;Humidity;BMP_temperature;BMP_pressure;BME280_temperature;BME280_humidity;BME280_pressure;Samples;Min_cycle;Max_cycle;Signal;HPM_P1;HPM_P2
2022/07/13 00:02:19;;;;;;;13.02;9.32;;;;;;;22.99;100.00;102124.25;4747721;30;20074;-62
2022/07/13 00:04:45;;;;;;;14.52;10.38;;;;;;;22.89;100.00;102135.28;4769088;29;20051;-62
2022/07/13 00:07:11;;;;;;;13.00;9.93;;;;;;;22.87;100.00;102134.66;4764591;29;20066;-61
2022/07/13 00:09:38;;;;;;;12.68;9.75;;;;;;;22.88;100.00;102124.78;4751870;30;20453;-62
2022/07/13 00:12:04;;;;;;;16.33;9.98;;;;;;;22.85;100.00;102119.81;4751421;30;20067;-62
2022/07/13 00:14:31;;;;;;;13.20;10.13;;;;;;;22.82;100.00;102122.91;4757191;30;20322;-62
2022/07/13 00:16:58;;;;;;;11.73;9.75;;;;;;;22.80;100.00;102115.06;4768065;30;20055;-62
2022/07/13 00:19:24;;;;;;;11.52;9.75;;;;;;;22.81;100.00;102108.69;4763430;29;20102;-62
2022/07/13 00:21:50;;;;;;;12.52;9.18;;;;;;;22.83;100.00;102100.47;4762823;30;20070;-62
2022/07/13 00:24:17;;;;;;;11.35;8.98;;;;;;;22.82;100.00;102096.16;4757546;30;20073;-62
2022/07/13 00:26:43;;;;;;;13.50;10.18;;;;;;;22.81;100.00;102097.97;4749195;30;20070;-63
2022/07/13 00:29:10;;;;;;;10.52;8.93;;;;;;;22.82;100.00;102088.13;4765473;29;20064;-63
2022/07/13 00:31:36;;;;;;;10.52;9.43;;;;;;;22.76;100.00;102091.56;4744663;30;20060;-64
2022/07/13 00:34:02;;;;;;;12.23;9.40;;;;;;;22.73;100.00;102074.06;4756539;29;20111;-62
2022/07/13 00:36:29;;;;;;;11.45;9.30;;;;;;;22.71;100.00;102078.78;4750304;30;20062;-62
2022/07/13 00:38:55;;;;;;;10.98;9.38;;;;;;;22.67;100.00;102072.19;4753531;30;20819;-62
2022/07/13 00:41:22;;;;;;;10.60;9.25;;;;;;;22.66;100.00;102067.88;4764359;30;20082;-63
2022/07/13 00:43:48;;;;;;;11.77;9.00;;;;;;;22.64;100.00;102062.72;4751693;30;20063;-61
2022/07/13 00:46:15;;;;;;;9.40;8.48;;;;;;;22.64;100.00;102060.03;4754963;29;20429;-62
2022/07/13 00:48:42;;;;;;;10.00;8.48;;;;;;;22.64;100.00;102056.53;4758091;29;20058;-63
2022/07/13 00:51:08;;;;;;;12.32;8.57;;;;;;;22.61;100.00;102057.75;4751399;30;20134;-62
2022/07/13 00:53:38;;;;;;;10.02;8.70;;;;;;;22.59;100.00;102050.94;4756941;30;20051;-63
2022/07/13 00:56:05;;;;;;;11.30;9.80;;;;;;;22.54;100.00;102043.50;4751013;30;20066;-63
2022/07/13 00:58:32;;;;;;;11.07;9.95;;;;;;;22.48;100.00;102052.31;4761819;30;20334;-63
2022/07/13 01:00:59;;;;;;;10.35;8.75;;;;;;;22.39;100.00;102040.13;4760165;29;20055;-62
2022/07/13 01:03:25;;;;;;;10.40;9.30;;;;;;;22.35;100.00;102045.03;4747907;30;20056;-62
2022/07/13 01:05:52;;;;;;;10.95;9.02;;;;;;;22.30;100.00;102042.94;4744309;30;20063;-62
2022/07/13 01:08:20;;;;;;;10.23;9.23;;;;;;;22.25;100.00;102039.22;4752042;29;20066;-62
2022/07/13 01:10:47;;;;;;;9.80;8.80;;;;;;;22.21;100.00;102038.75;4755407;30;20066;-62
2022/07/13 01:13:16;;;;;;;10.33;9.27;;;;;;;22.11;100.00;102039.09;4743623;30;20056;-63
2022/07/13 01:15:43;;;;;;;11.23;9.13;;;;;;;22.10;100.00;102040.09;4758696;30;20060;-62
2022/07/13 01:18:13;;;;;;;12.30;9.55;;;;;;;22.07;100.00;102037.81;4752851;30;20525;-62
2022/07/13 01:20:41;;;;;;;10.65;9.13;;;;;;;22.00;100.00;102031.59;4754362;30;20060;-62
2022/07/13 01:23:12;;;;;;;12.63;9.35;;;;;;;22.02;100.00;102032.22;4751057;30;20063;-61
2022/07/13 01:25:39;;;;;;;9.98;8.88;;;;;;;22.07;100.00;102021.78;4761614;30;20147;-62
2022/07/13 01:28:06;;;;;;;9.80;8.40;;;;;;;22.13;100.00;102020.19;4753510;30;20059;-63
2022/07/13 01:30:33;;;;;;;9.20;8.15;;;;;;;22.18;100.00;102017.75;4754676;30;20087;-62
2022/07/13 01:33:00;;;;;;;11.35;9.27;;;;;;;22.14;100.00;102026.34;4759233;30;20829;-62
2022/07/13 01:35:26;;;;;;;10.13;8.82;;;;;;;22.08;100.00;102030.63;4747205;30;20167;-62
2022/07/13 01:37:54;;;;;;;9.82;8.48;;;;;;;22.03;100.00;102020.53;4755043;30;20055;-63
2022/07/13 01:40:21;;;;;;;10.40;8.90;;;;;;;21.99;100.00;102016.56;4753663;30;20078;-62
2022/07/13 01:42:50;;;;;;;12.40;9.38;;;;;;;21.93;100.00;102017.34;4767393;30;20452;-63
2022/07/13 01:45:20;;;;;;;9.05;8.15;;;;;;;21.91;100.00;102017.56;4760454;30;20062;-62
2022/07/13 01:47:48;;;;;;;9.65;8.65;;;;;;;21.87;100.00;102010.91;4749048;30;20090;-62
2022/07/13 01:50:16;;;;;;;9.43;8.27;;;;;;;21.79;100.00;101999.56;4755232;30;20543;-62
2022/07/13 01:52:43;;;;;;;9.77;8.30;;;;;;;21.80;100.00;101995.88;4751514;30;20059;-63
2022/07/13 01:55:11;;;;;;;10.00;7.82;;;;;;;21.85;100.00;102006.78;4760298;30;20425;-62
2022/07/13 01:57:38;;;;;;;9.98;8.15;;;;;;;21.80;100.00;101999.38;4754776;30;20051;-62
2022/07/13 02:00:19;;;;;;;9.27;8.32;;;;;;;21.80;100.00;102001.22;4759704;30;20059;-62
2022/07/13 02:02:47;;;;;;;10.07;7.97;;;;;;;21.78;100.00;101990.72;4749330;30;20177;-62
2022/07/13 02:05:14;;;;;;;11.30;8.43;;;;;;;21.73;100.00;102001.16;4733556;30;20549;-62
2022/07/13 02:07:41;;;;;;;9.02;7.65;;;;;;;21.68;100.00;102008.94;4759977;30;20055;-62
2022/07/13 02:10:10;;;;;;;9.00;7.47;;;;;;;21.71;100.00;102008.53;4752048;30;20084;-61
2022/07/13 02:12:37;;;;;;;8.77;7.90;;;;;;;21.69;100.00;102002.56;4761481;30;20485;-62
2022/07/13 02:15:03;;;;;;;8.98;7.53;;;;;;;21.63;100.00;102006.00;4749703;30;20052;-61
2022/07/13 02:17:30;;;;;;;8.40;6.85;;;;;;;21.63;100.00;101990.78;4754936;30;20055;-63
2022/07/13 02:19:56;;;;;;;10.13;7.28;;;;;;;21.62;100.00;101985.63;4758666;30;20052;-62
2022/07/13 02:22:23;;;;;;;8.50;7.28;;;;;;;21.61;100.00;101984.81;4747404;30;20426;-62
2022/07/13 02:24:49;;;;;;;8.82;7.30;;;;;;;21.61;100.00;101986.66;4753721;30;20062;-61
2022/07/13 02:27:16;;;;;;;8.73;6.88;;;;;;;21.58;100.00;101984.38;4763777;29;20059;-62
2022/07/13 02:29:42;;;;;;;7.68;6.82;;;;;;;21.52;100.00;101992.16;4746507;30;20421;-62
2022/07/13 02:32:09;;;;;;;8.20;6.93;;;;;;;21.52;100.00;101988.63;4755877;30;20060;-62
2022/07/13 02:34:36;;;;;;;8.07;7.13;;;;;;;21.50;100.00;101982.66;4750323;30;20429;-63
2022/07/13 02:37:02;;;;;;;12.18;8.38;;;;;;;21.48;100.00;101979.34;4754535;30;20081;-62
2022/07/13 02:39:28;;;;;;;9.35;8.00;;;;;;;21.47;100.00;101975.84;4751511;30;20179;-62
2022/07/13 02:41:55;;;;;;;9.45;8.43;;;;;;;21.46;100.00;101963.53;4764467;30;20063;-62
2022/07/13 02:44:21;;;;;;;8.80;7.82;;;;;;;21.46;100.00;101955.53;4756966;29;20066;-62
2022/07/13 02:46:48;;;;;;;10.40;7.85;;;;;;;21.50;100.00;101950.63;4747704;30;20070;-63
2022/07/13 02:49:14;;;;;;;10.73;7.30;;;;;;;21.53;100.00;101950.25;4757027;29;20052;-62
2022/07/13 02:51:41;;;;;;;8.95;7.35;;;;;;;21.51;100.00;101950.44;4750535;30;20059;-62
2022/07/13 02:54:07;;;;;;;10.20;7.50;;;;;;;21.54;100.00;101959.88;4763453;30;20062;-62
2022/07/13 02:56:34;;;;;;;8.55;7.35;;;;;;;21.52;100.00;101959.25;4752565;30;20056;-62
2022/07/13 02:59:00;;;;;;;8.50;7.07;;;;;;;21.53;100.00;101947.56;4759383;30;20146;-63
2022/07/13 03:01:27;;;;;;;9.48;7.63;;;;;;;21.48;100.00;101950.84;4758187;30;20063;-63
2022/07/13 03:03:53;;;;;;;9.10;7.57;;;;;;;21.50;100.00;101954.13;4760760;30;20095;-62
2022/07/13 03:06:20;;;;;;;7.75;6.93;;;;;;;21.47;100.00;101949.16;4771473;29;20060;-63
2022/07/13 03:08:46;;;;;;;8.55;6.93;;;;;;;21.48;100.00;101952.66;4750932;30;20068;-62
2022/07/13 03:11:13;;;;;;;8.20;6.90;;;;;;;21.44;100.00;101965.56;4746691;30;20056;-61
2022/07/13 03:13:39;;;;;;;9.38;7.15;;;;;;;21.45;100.00;101958.38;4749967;30;20056;-63
2022/07/13 03:16:06;;;;;;;10.73;6.88;;;;;;;21.44;100.00;101956.72;4760719;30;20060;-63
2022/07/13 03:18:33;;;;;;;10.05;6.97;;;;;;;21.42;100.00;101946.19;4756114;29;20060;-62
2022/07/13 03:21:00;;;;;;;8.45;6.47;;;;;;;21.43;100.00;101945.22;4767265;30;20136;-63
2022/07/13 03:23:26;;;;;;;9.85;6.57;;;;;;;21.45;100.00;101937.84;4757338;30;20084;-62
2022/07/13 03:25:53;;;;;;;9.45;7.07;;;;;;;21.44;100.00;101938.03;4747398;30;20275;-63
2022/07/13 03:28:19;;;;;;;11.82;6.95;;;;;;;21.41;100.00;101938.41;4762986;30;20059;-63
2022/07/13 03:30:45;;;;;;;10.70;7.13;;;;;;;21.41;100.00;101933.06;4763332;30;20447;-63
2022/07/13 03:33:12;;;;;;;8.27;7.32;;;;;;;21.38;100.00;101925.44;4762438;30;20508;-62
2022/07/13 03:35:39;;;;;;;9.23;7.10;;;;;;;21.37;100.00;101915.78;4761237;29;20087;-62
2022/07/13 03:38:05;;;;;;;9.13;7.35;;;;;;;21.38;100.00;101917.44;4746625;30;20302;-63
2022/07/13 03:40:32;;;;;;;8.45;6.70;;;;;;;21.39;100.00;101925.25;4761739;29;20526;-62
2022/07/13 03:42:58;;;;;;;10.00;7.30;;;;;;;21.39;100.00;101927.09;4756975;30;20056;-63
2022/07/13 03:45:25;;;;;;;8.85;7.22;;;;;;;21.40;100.00;101924.22;4758939;30;20075;-63
2022/07/13 03:47:51;;;;;;;10.10;7.00;;;;;;;21.38;100.00;101920.91;4740310;30;20113;-63
2022/07/13 03:50:18;;;;;;;14.77;7.28;;;;;;;21.37;100.00;101915.78;4760602;30;20058;-62
2022/07/13 03:52:44;;;;;;;8.43;6.53;;;;;;;21.37;100.00;101913.94;4760073;30;20055;-62
2022/07/13 03:55:11;;;;;;;9.45;6.32;;;;;;;21.38;100.00;101915.56;4755117;30;20060;-62
2022/07/13 03:57:37;;;;;;;9.40;6.80;;;;;;;21.38;100.00;101912.09;4763313;29;20552;-62
2022/07/13 04:00:04;;;;;;;10.20;7.43;;;;;;;21.35;100.00;101913.31;4760547;30;20587;-63
2022/07/13 04:02:31;;;;;;;10.65;6.88;;;;;;;21.31;100.00;101909.38;4749934;29;20391;-63
2022/07/13 04:04:58;;;;;;;9.60;6.50;;;;;;;21.37;100.00;101907.78;4744304;30;20166;-62
2022/07/13 04:07:24;;;;;;;10.82;6.68;;;;;;;21.38;100.00;101904.09;4754674;30;20077;-62
2022/07/13 04:09:50;;;;;;;8.00;6.18;;;;;;;21.38;100.00;101894.22;4766271;30;20825;-63
2022/07/13 04:12:21;;;;;;;8.40;6.68;;;;;;;21.42;100.00;101902.69;4755957;29;20060;-63
2022/07/13 04:14:49;;;;;;;6.93;6.22;;;;;;;21.45;100.00;101903.16;4756629;30;20074;-63
2022/07/13 04:17:15;;;;;;;12.13;7.00;;;;;;;21.42;100.00;101898.16;4759157;29;20067;-63
2022/07/13 04:19:42;;;;;;;8.75;6.22;;;;;;;21.44;100.00;101900.69;4757499;30;20058;-63
2022/07/13 04:22:08;;;;;;;9.63;6.88;;;;;;;21.42;100.00;101897.34;4743321;30;20064;-61
2022/07/13 04:24:35;;;;;;;9.45;6.78;;;;;;;21.45;100.00;101902.34;4759011;30;20538;-63
2022/07/13 04:27:01;;;;;;;8.07;6.40;;;;;;;21.44;100.00;101906.81;4762035;30;20301;-62
2022/07/13 04:29:27;;;;;;;6.95;5.78;;;;;;;21.44;100.00;101906.81;4754639;30;20062;-62
2022/07/13 04:31:54;;;;;;;7.13;5.85;;;;;;;21.38;100.00;101901.41;4769264;29;20068;-63
2022/07/13 04:34:20;;;;;;;8.18;6.35;;;;;;;21.39;100.00;101903.91;4742238;30;20088;-63
2022/07/13 04:36:47;;;;;;;9.85;5.47;;;;;;;21.43;100.00;101899.00;4753393;30;20051;-62
2022/07/13 04:39:13;;;;;;;7.50;5.68;;;;;;;21.48;100.00;101891.25;4759419;29;20065;-62
2022/07/13 04:41:40;;;;;;;7.55;5.80;;;;;;;21.52;100.00;101881.84;4763772;30;20596;-63
2022/07/13 04:44:06;;;;;;;7.68;6.03;;;;;;;21.55;100.00;101883.31;4759080;30;20505;-62
2022/07/13 04:46:33;;;;;;;9.25;5.78;;;;;;;21.60;100.00;101887.06;4746542;30;20463;-62
2022/07/13 04:48:59;;;;;;;8.68;5.78;;;;;;;21.64;100.00;101874.13;4750435;30;20341;-62
2022/07/13 04:51:26;;;;;;;8.73;5.60;;;;;;;21.66;100.00;101880.09;4744231;30;20105;-62
2022/07/13 04:53:52;;;;;;;8.05;5.20;;;;;;;21.68;100.00;101878.09;4764174;30;20084;-63
2022/07/13 04:56:19;;;;;;;9.65;5.55;;;;;;;21.67;100.00;101874.56;4770140;29;20060;-62
2022/07/13 04:58:45;;;;;;;7.28;5.25;;;;;;;21.71;100.00;101875.00;4752020;30;20059;-62
2022/07/13 05:01:11;;;;;;;7.80;5.00;;;;;;;21.75;100.00;101875.47;4763874;29;20087;-62
2022/07/13 05:03:50;;;;;;;7.50;5.00;;;;;;;21.77;100.00;101874.22;4748243;29;20147;-63
2022/07/13 05:06:17;;;;;;;5.65;4.80;;;;;;;21.81;100.00;101869.34;4761887;30;20059;-62
2022/07/13 05:08:43;;;;;;;17.55;5.03;;;;;;;21.86;100.00;101867.72;4753882;30;20052;-62
2022/07/13 05:11:10;;;;;;;9.15;5.30;;;;;;;21.90;100.00;101870.84;4754026;30;20332;-62
2022/07/13 05:13:37;;;;;;;11.70;5.28;;;;;;;21.94;100.00;101872.09;4751084;30;20130;-63
2022/07/13 05:16:03;;;;;;;7.88;4.85;;;;;;;21.99;100.00;101866.16;4736728;30;20056;-62
2022/07/13 05:18:30;;;;;;;8.77;4.75;;;;;;;22.02;100.00;101865.78;4742183;30;20570;-62
2022/07/13 05:20:57;;;;;;;7.80;5.45;;;;;;;22.02;100.00;101857.75;4747719;30;20063;-62
2022/07/13 05:23:23;;;;;;;6.95;4.90;;;;;;;22.08;100.00;101865.78;4763321;30;20124;-63
2022/07/13 05:25:50;;;;;;;10.32;5.25;;;;;;;22.10;100.00;101871.75;4760596;29;20051;-63
2022/07/13 05:28:16;;;;;;;6.55;4.97;;;;;;;22.16;100.00;101866.66;4754265;30;20438;-63
2022/07/13 05:30:42;;;;;;;9.68;4.93;;;;;;;22.10;100.00;101865.59;4758732;29;20052;-64
2022/07/13 05:33:09;;;;;;;6.05;5.22;;;;;;;22.20;100.00;101866.06;4743477;30;20090;-64
2022/07/13 05:35:35;;;;;;;8.38;5.95;;;;;;;22.30;100.00;101871.06;4768146;29;20052;-64
2022/07/13 05:38:02;;;;;;;8.77;6.05;;;;;;;22.33;100.00;101873.34;4745936;30;20064;-63
2022/07/13 05:40:29;;;;;;;10.68;5.80;;;;;;;22.41;100.00;101875.03;4754107;30;20074;-64
2022/07/13 05:42:55;;;;;;;9.40;5.60;;;;;;;22.50;100.00;101876.50;4751897;30;20055;-63
2022/07/13 05:45:22;;;;;;;9.30;6.00;;;;;;;22.58;100.00;101879.00;4746083;30;20063;-62
2022/07/13 05:47:49;;;;;;;13.27;6.03;;;;;;;22.59;100.00;101877.97;4750766;30;20060;-62
2022/07/13 05:50:15;;;;;;;8.85;5.93;;;;;;;22.62;100.00;101887.44;4740063;30;20536;-62
2022/07/13 05:52:43;;;;;;;10.50;6.18;;;;;;;22.68;100.00;101890.16;4748189;30;20062;-62
2022/07/13 05:55:11;;;;;;;9.70;7.03;;;;;;;22.70;100.00;101888.09;4751314;30;20541;-63
2022/07/13 05:57:38;;;;;;;10.50;7.15;;;;;;;22.75;100.00;101887.47;4763745;29;20067;-62
2022/07/13 06:00:10;;;;;;;10.32;7.40;;;;;;;22.71;100.00;101883.56;4754360;30;20489;-62
2022/07/13 06:02:39;;;;;;;11.73;7.20;;;;;;;22.64;100.00;101882.69;4754269;30;20063;-62
2022/07/13 06:05:06;;;;;;;9.15;7.55;;;;;;;22.63;100.00;101879.22;4751182;30;20060;-62
2022/07/13 06:07:32;;;;;;;11.88;7.63;;;;;;;22.68;100.00;101876.78;4762903;30;20058;-62
2022/07/13 06:10:01;;;;;;;12.88;7.93;;;;;;;22.75;100.00;101886.66;4760250;30;20059;-62
2022/07/13 06:12:28;;;;;;;10.18;8.02;;;;;;;22.78;100.00;101881.75;4756235;30;20069;-63
2022/07/13 06:14:54;;;;;;;10.45;7.57;;;;;;;22.80;100.00;101884.22;4762270;30;20069;-62
2022/07/13 06:17:21;;;;;;;13.00;8.10;;;;;;;22.83;100.00;101881.94;4756003;30;20051;-62
2022/07/13 06:19:49;;;;;;;12.57;7.70;;;;;;;22.93;100.00;101886.09;4742215;30;20066;-63
2022/07/13 06:22:16;;;;;;;10.37;7.50;;;;;;;22.96;100.00;101888.38;4752747;30;20064;-62
2022/07/13 06:24:43;;;;;;;9.82;7.38;;;;;;;22.94;100.00;101880.53;4751357;30;20304;-63
2022/07/13 06:27:10;;;;;;;9.73;8.05;;;;;;;23.00;100.00;101882.41;4752457;30;20055;-62
2022/07/13 06:29:37;;;;;;;11.38;7.68;;;;;;;23.04;100.00;101858.75;4741195;30;20800;-62
2022/07/13 06:32:03;;;;;;;10.55;7.40;;;;;;;23.13;100.00;101867.41;4749350;30;20066;-62
2022/07/13 06:34:30;;;;;;;16.75;8.52;;;;;;;23.19;100.00;101874.63;4759263;30;20055;-63
2022/07/13 06:36:56;;;;;;;13.88;8.60;;;;;;;23.18;100.00;101873.78;4749046;29;20062;-62
2022/07/13 06:39:23;;;;;;;21.23;8.20;;;;;;;23.18;100.00;101865.78;4762482;30;20663;-62
2022/07/13 06:41:49;;;;;;;14.57;8.32;;;;;;;23.26;100.00;101870.09;4754654;30;20070;-63
2022/07/13 06:44:15;;;;;;;9.50;8.02;;;;;;;23.30;100.00;101858.75;4757072;30;20071;-63
2022/07/13 06:46:42;;;;;;;12.73;8.85;;;;;;;23.29;100.00;101865.16;4742167;29;20296;-63
2022/07/13 06:49:08;;;;;;;11.07;7.55;;;;;;;23.33;100.00;101867.44;4749658;30;20052;-62
2022/07/13 06:51:36;;;;;;;11.60;8.25;;;;;;;23.43;100.00;101873.19;4761306;30;20062;-62
2022/07/13 06:54:08;;;;;;;13.30;7.78;;;;;;;23.47;100.00;101877.91;4753329;30;20059;-62
2022/07/13 06:56:34;;;;;;;11.43;7.75;;;;;;;23.57;100.00;101879.38;4761357;30;20051;-62
2022/07/13 06:59:01;;;;;;;11.18;8.35;;;;;;;23.61;100.00;101872.56;4749999;30;20540;-62
2022/07/13 07:01:28;;;;;;;12.52;8.32;;;;;;;23.64;100.00;101856.91;4749237;30;20063;-62
2022/07/13 07:03:54;;;;;;;12.82;7.80;;;;;;;23.78;100.00;101871.13;4750537;30;20167;-63
2022/07/13 07:06:21;;;;;;;11.63;8.35;;;;;;;23.87;100.00;101883.28;4750798;30;20056;-62
2022/07/13 07:08:47;;;;;;;11.68;8.32;;;;;;;23.87;100.00;101872.56;4756794;30;20053;-62
2022/07/13 07:11:13;;;;;;;13.40;8.50;;;;;;;23.91;100.00;101878.31;4757442;29;20083;-62
2022/07/13 07:13:40;;;;;;;14.35;8.20;;;;;;;23.95;100.00;101868.81;4749509;30;20278;-62
2022/07/13 07:16:06;;;;;;;13.13;8.25;;;;;;;24.07;100.00;101877.03;4750494;30;20051;-62
2022/07/13 07:18:33;;;;;;;11.98;8.05;;;;;;;24.10;100.00;101881.16;4760081;30;20059;-63
2022/07/13 07:21:00;;;;;;;13.32;8.70;;;;;;;24.18;100.00;101880.91;4758000;30;20059;-63
2022/07/13 07:23:26;;;;;;;12.27;7.22;;;;;;;24.23;100.00;101873.91;4752418;30;20147;-63
2022/07/13 07:25:53;;;;;;;11.30;8.38;;;;;;;24.11;100.00;101875.59;4751344;30;20495;-63
2022/07/13 07:28:19;;;;;;;11.57;8.02;;;;;;;24.13;100.00;101881.56;4741385;30;20055;-62
2022/07/13 07:30:46;;;;;;;11.10;8.68;;;;;;;24.23;100.00;101881.13;4759764;30;20532;-63
2022/07/13 07:33:12;;;;;;;11.32;8.95;;;;;;;24.24;100.00;101872.03;4745673;30;20426;-63
2022/07/13 07:35:39;;;;;;;11.82;8.50;;;;;;;24.21;100.00;101869.78;4761301;29;20061;-63
2022/07/13 07:38:05;;;;;;;11.43;8.48;;;;;;;24.26;100.00;101869.97;4757282;30;20078;-62
2022/07/13 07:40:31;;;;;;;13.85;8.60;;;;;;;24.35;100.00;101866.00;4752209;29;20060;-62
2022/07/13 07:42:58;;;;;;;13.38;8.75;;;;;;;24.36;100.00;101872.19;4759837;30;20056;-61
2022/07/13 07:45:25;;;;;;;11.80;8.43;;;;;;;24.51;100.00;101863.91;4758647;30;20502;-62
2022/07/13 07:47:52;;;;;;;11.35;7.15;;;;;;;24.73;100.00;101867.09;4754283;30;20052;-62
2022/07/13 07:50:19;;;;;;;17.00;7.25;;;;;;;24.88;100.00;101874.84;4761465;30;20074;-62
2022/07/13 07:52:45;;;;;;;12.25;6.93;;;;;;;24.84;100.00;101874.47;4764303;30;20063;-62
2022/07/13 07:55:19;;;;;;;12.25;7.63;;;;;;;24.72;100.00;101868.09;4755635;30;20060;-62
2022/07/13 07:57:47;;;;;;;12.07;6.53;;;;;;;24.81;100.00;101870.31;4751086;29;20059;-62
2022/07/13 08:00:14;;;;;;;;;;;;;;;24.89;100.00;101874.59;4754604;30;20051;-62
2022/07/13 08:02:40;;;;;;;10.57;6.70;;;;;;;24.97;100.00;101860.94;4746270;30;19937;-61
2022/07/13 08:05:08;;;;;;;10.75;6.60;;;;;;;25.16;100.00;101859.16;4761704;30;20422;-62
2022/07/13 08:07:44;;;;;;;12.47;6.03;;;;;;;25.31;100.00;101858.84;4748722;29;20475;-61
2022/07/13 08:10:13;;;;;;;9.95;6.22;;;;;;;25.45;100.00;101860.38;4746050;30;20404;-62
2022/07/13 08:12:57;;;;;;;8.55;5.25;;;;;;;25.52;100.00;101854.97;4772140;29;20062;-62
2022/07/13 08:15:24;;;;;;;10.95;5.80;;;;;;;25.58;100.00;101856.75;4762379;30;20064;-62
2022/07/13 08:17:51;;;;;;;12.40;5.63;;;;;;;25.64;100.00;101858.56;4761381;30;20135;-62
2022/07/13 08:20:17;;;;;;;11.32;5.43;;;;;;;25.63;100.00;101861.44;4761266;29;20691;-61
2022/07/13 08:22:48;;;;;;;8.45;5.50;;;;;;;25.55;100.00;101859.88;4752919;30;20093;-62
2022/07/13 08:25:15;;;;;;;9.02;4.60;;;;;;;25.58;100.00;101863.97;4737533;30;20052;-62
2022/07/13 08:27:42;;;;;;;7.73;5.73;;;;;;;25.57;100.00;101865.84;4758539;30;20521;-61
2022/07/13 08:30:10;;;;;;;9.15;4.95;;;;;;;25.69;100.00;101857.88;4762411;29;20059;-62
2022/07/13 08:32:38;;;;;;;8.70;5.97;;;;;;;25.71;100.00;101858.47;4751431;29;20114;-62
2022/07/13 08:40:43;;;;;;;8.30;5.95;;;;;;;26.04;100.00;101858.16;4757008;30;20052;-62
2022/07/13 08:43:10;;;;;;;9.77;6.40;;;;;;;26.13;100.00;101873.97;4745777;30;20566;-62
2022/07/13 08:45:36;;;;;;;8.77;6.28;;;;;;;26.21;100.00;101868.31;4758761;30;20063;-62
2022/07/13 08:48:15;;;;;;;12.15;5.90;;;;;;;26.25;100.00;101874.88;4759025;30;20088;-61
2022/07/13 08:50:44;;;;;;;8.07;5.18;;;;;;;26.44;100.00;101875.66;4752361;30;20056;-61
2022/07/13 08:53:11;;;;;;;9.55;5.68;;;;;;;26.47;100.00;101871.72;4754266;30;20147;-61
2022/07/13 08:55:38;;;;;;;10.05;5.90;;;;;;;26.44;100.00;101868.44;4748120;30;20055;-62
2022/07/13 08:58:06;;;;;;;10.88;6.43;;;;;;;26.38;100.00;101871.19;4769269;30;20063;-63
2022/07/13 09:00:33;;;;;;;7.85;5.85;;;;;;;26.51;100.00;101870.19;4745848;30;20143;-62
2022/07/13 09:02:59;;;;;;;9.70;6.23;;;;;;;26.56;100.00;101870.31;4761048;30;20048;-62
2022/07/13 09:05:27;;;;;;;9.32;6.07;;;;;;;26.63;100.00;101879.97;4750508;30;20343;-62
2022/07/13 09:08:07;;;;;;;8.13;6.20;;;;;;;26.69;100.00;101878.25;4743467;30;20502;-61
2022/07/13 09:10:56;;;;;;;10.68;6.30;;;;;;;26.81;100.00;101872.91;4756968;30;20093;-61
2022/07/13 09:13:40;;;;;;;12.52;6.43;;;;;;;26.81;99.99;101879.13;4735928;30;20052;-61
2022/07/13 09:16:24;;;;;;;7.88;5.65;;;;;;;26.97;100.00;101874.94;4742885;30;20143;-61
2022/07/13 09:18:59;;;;;;;6.90;5.50;;;;;;;27.13;100.00;101881.53;4741248;30;20056;-63
2022/07/13 09:21:30;;;;;;;8.70;5.57;;;;;;;27.17;100.00;101879.22;4751348;30;20063;-62
2022/07/13 09:23:58;;;;;;;8.85;5.80;;;;;;;27.22;98.24;101879.31;4751625;30;20150;-62
2022/07/13 09:26:40;;;;;;;;;;;;;;;27.36;99.96;101872.69;4756896;30;20056;-63
2022/07/13 09:29:07;;;;;;;9.23;5.40;;;;;;;27.52;99.64;101878.41;4737238;30;20133;-63
2022/07/13 09:31:53;;;;;;;8.67;5.30;;;;;;;27.60;100.00;101875.41;4749306;30;20055;-63
2022/07/13 09:34:21;;;;;;;9.07;5.70;;;;;;;27.76;99.22;101874.66;4745291;30;20052;-63
2022/07/13 09:37:09;;;;;;;7.28;4.75;;;;;;;28.13;97.49;101870.91;4755663;30;20121;-62
2022/07/13 09:39:58;;;;;;;11.35;5.82;;;;;;;28.35;94.68;101866.47;4758561;30;20228;-63
2022/07/13 09:42:29;;;;;;;8.20;5.78;;;;;;;28.57;92.97;101865.81;4748572;29;20083;-62
2022/07/13 09:47:46;;;;;;;9.20;6.05;;;;;;;28.82;90.71;101870.88;4744049;30;20706;-63
2022/07/13 09:50:13;;;;;;;10.35;5.63;;;;;;;29.01;91.44;101876.03;4755701;30;20059;-63
2022/07/13 09:52:39;;;;;;;9.73;6.47;;;;;;;29.11;88.53;101876.19;4752174;30;20060;-63
2022/07/13 09:55:10;;;;;;;8.87;5.87;;;;;;;29.01;86.97;101868.75;4748021;30;20597;-62
2022/07/13 09:57:45;;;;;;;10.38;6.65;;;;;;;29.16;87.32;101879.00;4750904;29;20310;-62
2022/07/13 10:00:21;;;;;;;6.57;4.93;;;;;;;29.08;85.70;101879.41;4759721;30;20063;-63
2022/07/13 10:02:49;;;;;;;6.75;4.60;;;;;;;29.31;85.17;101871.16;4762768;29;20055;-62
2022/07/13 10:05:17;;;;;;;10.90;5.00;;;;;;;29.33;85.40;101889.81;4743003;30;20068;-63
2022/07/13 10:07:46;;;;;;;9.70;4.47;;;;;;;29.73;85.92;101881.50;4763161;30;20086;-63
2022/07/13 10:10:16;;;;;;;8.75;5.07;;;;;;;29.79;84.50;101887.00;4755370;29;20083;-62
2022/07/13 10:12:43;;;;;;;13.20;5.30;;;;;;;29.74;85.87;101879.63;4759246;30;20051;-63
2022/07/13 10:15:12;;;;;;;6.90;4.50;;;;;;;29.64;81.46;101882.16;4750403;29;20096;-62
2022/07/13 10:17:40;;;;;;;8.43;5.30;;;;;;;29.54;82.40;101886.34;4749065;30;20070;-62
2022/07/13 10:20:15;;;;;;;7.68;4.70;;;;;;;29.76;82.70;101880.22;4749943;30;20415;-62
2022/07/13 10:22:45;;;;;;;8.23;4.82;;;;;;;29.77;83.18;101879.13;4762368;29;20096;-62
2022/07/13 10:25:13;;;;;;;6.55;4.65;;;;;;;29.89;82.08;101885.25;4742108;30;20260;-62
2022/07/13 10:27:42;;;;;;;7.80;4.70;;;;;;;30.09;82.09;101887.41;4756724;29;20540;-62
2022/07/13 10:30:15;;;;;;;7.68;4.60;;;;;;;30.17;78.75;101884.25;4756434;30;20511;-63
2022/07/13 10:32:42;;;;;;;10.68;4.80;;;;;;;30.28;81.11;101895.19;4748773;29;20513;-63
2022/07/13 10:35:11;;;;;;;5.68;4.20;;;;;;;30.25;79.49;101887.56;4748720;30;20551;-64
2022/07/13 10:37:56;;;;;;;6.47;3.67;;;;;;;30.16;77.31;101901.53;4756226;30;20062;-64
2022/07/13 10:40:32;;;;;;;6.10;3.80;;;;;;;30.04;78.90;101900.03;4743523;30;20054;-62
2022/07/13 10:43:00;;;;;;;7.97;3.88;;;;;;;30.39;79.64;101891.56;4767533;30;20510;-63
2022/07/13 10:45:38;;;;;;;8.15;3.42;;;;;;;30.48;77.87;101890.03;4742074;30;20124;-63
2022/07/13 10:48:11;;;;;;;7.55;3.53;;;;;;;30.49;78.99;101882.72;4755404;30;20048;-63
2022/07/13 10:50:46;;;;;;;5.80;3.20;;;;;;;30.74;79.74;101880.25;4736590;29;20064;-64
2022/07/13 10:53:15;;;;;;;5.53;3.60;;;;;;;30.89;75.94;101882.34;4739682;30;20530;-64
2022/07/13 10:55:51;;;;;;;6.53;3.10;;;;;;;30.94;79.04;101882.38;4746222;30;20635;-63
2022/07/13 10:58:30;;;;;;;5.38;3.45;;;;;;;30.63;77.18;101877.72;4761265;30;20545;-63
2022/07/13 11:01:01;;;;;;;5.40;4.30;;;;;;;30.81;78.82;101880.03;4756311;30;20116;-63
2022/07/13 11:03:37;;;;;;;8.75;3.97;;;;;;;30.85;78.81;101877.63;4740604;29;20403;-64
2022/07/13 11:06:11;;;;;;;8.40;3.63;;;;;;;31.06;78.44;101870.53;4754218;30;20776;-64
2022/07/13 11:08:39;;;;;;;12.90;4.57;;;;;;;30.81;76.34;101890.06;4762758;29;20055;-63
2022/07/13 11:11:13;;;;;;;8.27;3.35;;;;;;;31.12;77.37;101883.84;4753911;30;20063;-64
2022/07/13 11:13:44;;;;;;;6.97;4.10;;;;;;;31.26;76.08;101886.94;4749090;30;20576;-63
2022/07/13 11:16:12;;;;;;;6.25;4.45;;;;;;;31.36;74.86;101888.09;4762829;30;20060;-64
2022/07/13 11:18:41;;;;;;;5.93;4.05;;;;;;;31.42;75.86;101887.88;4753458;30;20137;-63
2022/07/13 11:21:14;;;;;;;7.53;4.00;;;;;;;31.49;76.94;101893.91;4760366;30;20631;-65
2022/07/13 11:26:36;;;;;;;6.18;3.72;;;;;;;31.49;75.10;101888.47;4751599;30;20056;-63
2022/07/13 11:29:05;;;;;;;5.63;3.05;;;;;;;31.50;74.84;101895.56;4760287;30;20048;-63
2022/07/13 11:31:36;;;;;;;8.05;3.30;;;;;;;31.38;77.35;101891.34;4740749;30;20055;-63